createdAt,value
2023-01-25T00:58:35.794Z,2.30
2023-01-25T01:01:02.643Z,2.30
2023-01-25T01:03:29.377Z,2.30
2023-01-25T01:06:04.116Z,2.30
2023-01-25T01:08:33.119Z,2.40
2023-01-25T01:11:23.097Z,2.40
2023-01-25T01:13:50.008Z,2.40
2023-01-25T01:16:16.942Z,2.40
2023-01-25T01:18:45.040Z,2.40
2023-01-25T01:21:12.700Z,2.40
2023-01-25T01:23:39.759Z,2.40
2023-01-25T01:26:07.958Z,2.50
2023-01-25T01:28:35.396Z,2.50
2023-01-25T01:31:14.546Z,2.60
2023-01-25T01:33:41.565Z,2.60
2023-01-25T01:36:09.408Z,2.60
2023-01-25T01:38:36.337Z,2.60
2023-01-25T01:41:03.244Z,2.70
2023-01-25T01:43:32.735Z,2.70
2023-01-25T01:46:17.036Z,2.70
2023-01-25T01:48:45.607Z,2.70
2023-01-25T01:51:35.309Z,2.70
2023-01-25T01:54:11.801Z,2.70
2023-01-25T01:57:00.734Z,2.70
2023-01-25T01:59:31.896Z,2.70
2023-01-25T02:01:58.681Z,2.70
2023-01-25T02:04:26.221Z,2.70
2023-01-25T02:07:11.209Z,2.80
2023-01-25T02:09:38.600Z,2.80
2023-01-25T02:12:05.772Z,2.80
2023-01-25T02:14:32.526Z,2.80
2023-01-25T02:16:59.368Z,2.80
2023-01-25T02:19:38.294Z,2.80
2023-01-25T02:22:07.722Z,2.80
2023-01-25T02:24:34.459Z,2.70
2023-01-25T02:27:01.216Z,2.70
2023-01-25T02:29:28.024Z,2.70
2023-01-25T02:32:03.382Z,2.60
2023-01-25T02:34:30.176Z,2.60
2023-01-25T02:36:56.937Z,2.60
2023-01-25T02:39:26.627Z,2.60
2023-01-25T02:41:53.874Z,2.60
2023-01-25T02:44:25.672Z,2.60
2023-01-25T02:46:52.611Z,2.70
2023-01-25T02:49:19.943Z,2.70
2023-01-25T02:51:49.424Z,2.70
2023-01-25T02:54:16.759Z,2.80
2023-01-25T02:56:43.493Z,2.80
2023-01-25T02:59:10.613Z,2.70
2023-01-25T03:01:38.395Z,2.80
2023-01-25T03:04:05.646Z,2.80
2023-01-25T03:06:33.159Z,2.80
2023-01-25T03:08:59.934Z,2.70
2023-01-25T03:11:26.603Z,2.70
2023-01-25T03:13:53.443Z,2.70
2023-01-25T03:16:20.266Z,2.70
2023-01-25T03:18:47.155Z,2.70
2023-01-25T03:21:15.660Z,2.70
2023-01-25T03:23:42.647Z,2.70
2023-01-25T03:26:10.383Z,2.70
2023-01-25T03:28:37.679Z,2.70
2023-01-25T03:31:04.667Z,2.80
2023-01-25T03:33:31.414Z,2.80
2023-01-25T03:35:58.289Z,2.80
2023-01-25T03:38:25.440Z,2.80
2023-01-25T03:40:52.281Z,2.80
2023-01-25T03:43:19.155Z,2.80
2023-01-25T03:45:46.046Z,2.80
2023-01-25T03:48:12.874Z,2.80
2023-01-25T03:50:39.698Z,2.70
2023-01-25T03:53:10.188Z,2.70
2023-01-25T03:55:36.903Z,2.70
2023-01-25T03:58:03.624Z,2.60
2023-01-25T04:00:30.440Z,2.60
2023-01-25T04:02:57.131Z,2.60
2023-01-25T04:05:23.879Z,2.60
2023-01-25T04:07:50.627Z,2.50
2023-01-25T04:10:17.847Z,2.50
2023-01-25T04:12:44.561Z,2.60
2023-01-25T04:15:11.611Z,2.50
2023-01-25T04:17:38.524Z,2.50
2023-01-25T04:20:05.805Z,2.50
2023-01-25T04:22:32.569Z,2.50
2023-01-25T04:24:59.292Z,2.50
2023-01-25T04:27:26.075Z,2.50
2023-01-25T04:29:52.939Z,2.50
2023-01-25T04:32:19.854Z,2.50
2023-01-25T04:34:46.861Z,2.40
2023-01-25T04:37:13.547Z,2.40
2023-01-25T04:39:40.244Z,2.40
2023-01-25T04:42:07.128Z,2.40
2023-01-25T04:44:33.868Z,2.40
2023-01-25T04:47:01.062Z,2.40
2023-01-25T04:49:27.816Z,2.30
2023-01-25T04:51:54.503Z,2.40
2023-01-25T04:54:21.217Z,2.30
2023-01-25T04:56:47.935Z,2.30
2023-01-25T04:59:14.893Z,2.30
2023-01-25T05:01:42.095Z,2.30
2023-01-25T05:04:09.298Z,2.30
2023-01-25T05:06:36.021Z,2.30
2023-01-25T05:09:02.838Z,2.40
2023-01-25T05:11:29.520Z,2.40
2023-01-25T05:13:56.655Z,2.40
2023-01-25T05:16:23.712Z,2.40
2023-01-25T05:18:50.695Z,2.40
2023-01-25T05:21:35.808Z,2.40
2023-01-25T05:24:03.109Z,2.40
2023-01-25T05:26:48.531Z,2.40
2023-01-25T05:29:15.261Z,2.40
2023-01-25T05:31:42.006Z,2.40
2023-01-25T05:34:09.524Z,2.40
2023-01-25T05:36:36.744Z,2.40
2023-01-25T05:39:06.646Z,2.40
2023-01-25T05:41:33.474Z,2.40
2023-01-25T05:44:00.467Z,2.40
2023-01-25T05:46:28.013Z,2.30
2023-01-25T05:48:54.873Z,2.30
2023-01-25T05:51:21.619Z,2.30
2023-01-25T05:53:48.364Z,2.30
2023-01-25T05:56:15.155Z,2.30
2023-01-25T05:58:42.115Z,2.30
2023-01-25T06:01:08.911Z,2.20
2023-01-25T06:03:35.771Z,2.20
2023-01-25T06:06:03.029Z,2.20
2023-01-25T06:08:32.947Z,2.20
2023-01-25T06:10:59.662Z,2.20
2023-01-25T06:13:26.438Z,2.20
2023-01-25T06:15:56.601Z,2.20
2023-01-25T06:18:24.569Z,2.20
2023-01-25T06:20:51.442Z,2.20
2023-01-25T06:23:18.502Z,2.20
2023-01-25T06:25:45.206Z,2.20
2023-01-25T06:28:12.387Z,2.20
2023-01-25T06:30:39.180Z,2.20
2023-01-25T06:33:05.982Z,2.20
2023-01-25T06:35:33.226Z,2.20
2023-01-25T06:38:00.305Z,2.20
2023-01-25T06:40:27.692Z,2.20
2023-01-25T06:42:54.563Z,2.20
2023-01-25T06:45:21.817Z,2.20
2023-01-25T06:47:49.188Z,2.30
2023-01-25T06:50:15.971Z,2.30
2023-01-25T06:52:42.802Z,2.30
2023-01-25T06:55:13.887Z,2.20
2023-01-25T06:57:40.684Z,2.20
2023-01-25T07:00:08.510Z,2.10
2023-01-25T07:02:37.091Z,2.10
2023-01-25T07:05:04.224Z,2.10
2023-01-25T07:07:30.970Z,2.10
2023-01-25T07:10:00.490Z,2.10
2023-01-25T07:12:30.647Z,2.10
2023-01-25T07:14:57.495Z,2.10
2023-01-25T07:17:24.415Z,2.10
2023-01-25T07:19:51.260Z,2.00
2023-01-25T07:22:18.352Z,2.00
2023-01-25T07:24:49.990Z,2.00
2023-01-25T07:27:17.492Z,2.00
2023-01-25T07:29:44.337Z,2.00
2023-01-25T07:32:14.460Z,2.00
2023-01-25T07:34:41.423Z,2.00
2023-01-25T07:37:09.353Z,2.00
2023-01-25T07:39:36.450Z,2.00
2023-01-25T07:42:03.443Z,2.00
2023-01-25T07:44:30.260Z,2.00
2023-01-25T07:46:57.206Z,2.00
2023-01-25T07:49:24.142Z,2.00
2023-01-25T07:51:51.002Z,2.00
2023-01-25T07:54:17.881Z,2.00
2023-01-25T07:56:44.601Z,2.00
2023-01-25T07:59:11.540Z,2.00
2023-01-25T08:01:39.443Z,2.00
2023-01-25T08:04:06.940Z,2.00
2023-01-25T08:06:36.268Z,1.90
2023-01-25T08:09:08.788Z,2.00
2023-01-25T08:11:35.776Z,2.00
2023-01-25T08:14:03.177Z,2.00
2023-01-25T08:16:30.813Z,1.90
2023-01-25T08:18:59.493Z,1.90
2023-01-25T08:21:30.250Z,2.00
2023-01-25T08:24:01.230Z,2.00
2023-01-25T08:26:29.041Z,1.90
2023-01-25T08:28:55.859Z,1.90
2023-01-25T08:31:24.342Z,1.90
2023-01-25T08:33:51.512Z,1.90
2023-01-25T08:36:18.737Z,1.90
2023-01-25T08:38:46.736Z,1.90
2023-01-25T08:41:16.187Z,2.00
2023-01-25T08:43:43.760Z,2.00
2023-01-25T08:46:10.883Z,1.90
2023-01-25T08:48:37.993Z,1.90
2023-01-25T08:51:05.043Z,1.90
2023-01-25T08:53:32.704Z,1.90
2023-01-25T08:56:04.194Z,1.90
2023-01-25T08:58:31.757Z,2.00
2023-01-25T09:01:06.261Z,2.00
2023-01-25T09:03:35.866Z,2.00
2023-01-25T09:06:02.607Z,2.00
2023-01-25T09:08:29.383Z,2.00
2023-01-25T09:11:00.232Z,2.00
2023-01-25T09:13:27.025Z,2.00
2023-01-25T09:15:58.794Z,2.00
2023-01-25T09:18:25.781Z,2.00
2023-01-25T09:20:52.531Z,2.00
2023-01-25T09:23:22.784Z,2.10
2023-01-25T09:25:55.946Z,2.00
2023-01-25T09:28:22.718Z,2.00
2023-01-25T09:31:18.609Z,2.00
2023-01-25T09:33:44.551Z,1.90
2023-01-25T09:36:11.467Z,1.80
2023-01-25T09:38:38.290Z,1.80
2023-01-25T09:41:04.967Z,1.80
2023-01-25T09:44:13.687Z,1.80
2023-01-25T09:46:58.595Z,1.80
2023-01-25T09:49:44.879Z,1.70
2023-01-25T09:52:37.719Z,1.60
2023-01-25T09:55:12.342Z,1.70
2023-01-25T09:57:39.792Z,1.80
2023-01-25T10:00:17.885Z,1.90
2023-01-25T10:03:06.032Z,2.00
2023-01-25T10:05:37.204Z,2.10
2023-01-25T10:08:30.202Z,2.10
2023-01-25T10:11:14.323Z,2.20
2023-01-25T10:13:41.096Z,2.30
2023-01-25T10:16:26.102Z,2.40
2023-01-25T10:19:15.005Z,2.50
2023-01-25T10:21:56.964Z,2.50
2023-01-25T10:24:51.475Z,2.50
2023-01-25T10:27:21.526Z,2.50
2023-01-25T10:29:48.692Z,2.60
2023-01-25T10:32:19.260Z,2.70
2023-01-25T10:34:56.432Z,2.80
2023-01-25T10:37:27.334Z,2.80
2023-01-25T10:40:12.270Z,2.70
2023-01-25T10:42:49.124Z,2.80
2023-01-25T10:45:16.465Z,3.00
2023-01-25T10:47:46.166Z,3.10
2023-01-25T10:50:38.690Z,3.20
2023-01-25T10:53:05.446Z,3.40
2023-01-25T10:55:32.102Z,3.50
2023-01-25T10:57:58.934Z,3.60
2023-01-25T11:00:38.949Z,3.70
2023-01-25T11:03:06.023Z,3.80
2023-01-25T11:05:39.744Z,3.90
2023-01-25T11:08:24.328Z,4.00
2023-01-25T11:10:51.313Z,4.10
2023-01-25T11:13:19.453Z,4.20
2023-01-25T11:15:47.938Z,4.30
2023-01-25T11:18:25.436Z,4.40
2023-01-25T11:21:07.249Z,4.50
2023-01-25T11:23:34.581Z,4.60
2023-01-25T11:26:14.957Z,4.70
2023-01-25T11:28:42.056Z,4.80
2023-01-25T11:31:11.175Z,4.80
2023-01-25T11:33:38.019Z,4.90
2023-01-25T11:36:25.244Z,4.90
2023-01-25T11:39:05.967Z,5.00
2023-01-25T11:41:55.481Z,5.10
2023-01-25T11:44:32.486Z,5.30
2023-01-25T11:47:29.975Z,5.30
2023-01-25T11:50:02.608Z,5.30
2023-01-25T11:52:58.826Z,5.40
2023-01-25T11:55:27.511Z,5.50
2023-01-25T11:58:32.177Z,5.60
2023-01-25T12:01:17.530Z,5.80
2023-01-25T12:04:25.653Z,5.90
2023-01-25T12:07:14.304Z,6.10
2023-01-25T12:09:53.171Z,6.10
2023-01-25T12:12:28.920Z,5.90
2023-01-25T12:15:08.417Z,5.90
2023-01-25T12:17:55.775Z,6.00
2023-01-25T12:20:51.605Z,6.00
2023-01-25T12:23:39.987Z,5.80
2023-01-25T12:26:13.092Z,5.60
2023-01-25T12:29:13.629Z,5.70
2023-01-25T12:31:55.614Z,5.70
2023-01-25T12:34:24.836Z,5.80
2023-01-25T12:36:51.595Z,5.80
2023-01-25T12:39:18.326Z,5.90
2023-01-25T12:41:57.190Z,5.80
2023-01-25T12:44:39.856Z,5.80
2023-01-25T12:47:22.521Z,5.80
2023-01-25T12:49:59.252Z,5.70
2023-01-25T12:52:32.974Z,5.70
2023-01-25T12:55:04.700Z,5.60
2023-01-25T12:57:39.682Z,5.70
2023-01-25T13:00:30.374Z,5.70
2023-01-25T13:03:09.572Z,5.70
2023-01-25T13:06:01.078Z,5.80
2023-01-25T13:08:34.913Z,5.70
2023-01-25T13:11:39.243Z,5.70
2023-01-25T13:14:25.802Z,5.60
2023-01-25T13:17:08.470Z,5.50
2023-01-25T13:19:36.853Z,5.50
2023-01-25T13:22:03.764Z,5.30
2023-01-25T13:24:31.739Z,5.30
2023-01-25T13:27:03.399Z,5.10
2023-01-25T13:29:39.660Z,5.10
2023-01-25T13:32:13.321Z,5.00
2023-01-25T13:34:44.207Z,5.00
2023-01-25T13:37:23.437Z,5.00
2023-01-25T13:39:51.290Z,5.00
2023-01-25T13:42:23.224Z,5.00
2023-01-25T13:44:54.731Z,5.00
2023-01-25T13:47:27.380Z,5.00
2023-01-25T13:50:21.366Z,4.90
2023-01-25T13:53:00.345Z,4.80
2023-01-25T13:55:27.668Z,4.80
2023-01-25T13:58:14.806Z,4.70
2023-01-25T14:01:06.379Z,4.80
2023-01-25T14:03:41.424Z,4.80
2023-01-25T14:06:14.501Z,4.80
2023-01-25T14:08:41.375Z,4.80
2023-01-25T14:11:08.104Z,4.80
2023-01-25T14:13:34.839Z,4.80
2023-01-25T14:16:02.059Z,4.80
2023-01-25T14:18:32.316Z,4.80
2023-01-25T14:21:11.657Z,4.80
2023-01-25T14:23:38.778Z,4.80
2023-01-25T14:26:21.397Z,4.80
2023-01-25T14:28:59.322Z,4.90
2023-01-25T14:31:36.331Z,4.80
2023-01-25T14:34:04.800Z,4.80
2023-01-25T14:36:34.316Z,4.80
2023-01-25T14:39:03.187Z,4.80
2023-01-25T14:41:34.687Z,4.80
2023-01-25T14:44:12.760Z,4.80
2023-01-25T14:46:39.963Z,4.70
2023-01-25T14:49:14.713Z,4.70
2023-01-25T14:52:11.792Z,4.70
2023-01-25T14:54:46.291Z,4.70
2023-01-25T14:57:24.424Z,4.70
2023-01-25T14:59:51.841Z,4.70
2023-01-25T15:02:37.929Z,4.70
2023-01-25T15:05:15.189Z,4.80
2023-01-25T15:07:49.822Z,4.90
2023-01-25T15:10:27.268Z,5.00
2023-01-25T15:13:14.008Z,5.00
2023-01-25T15:16:01.335Z,5.10
2023-01-25T15:18:47.881Z,5.20
2023-01-25T15:21:27.059Z,5.20
2023-01-25T15:23:55.014Z,5.30
2023-01-25T15:26:29.591Z,5.40
2023-01-25T15:28:57.835Z,5.40
2023-01-25T15:31:30.009Z,5.40
2023-01-25T15:33:57.372Z,5.30
2023-01-25T15:36:24.988Z,5.30
2023-01-25T15:38:51.942Z,5.30
2023-01-25T15:41:19.116Z,5.30
2023-01-25T15:43:46.544Z,5.30
2023-01-25T15:46:35.406Z,5.30
2023-01-25T15:49:04.447Z,5.30
2023-01-25T15:51:35.528Z,5.30
2023-01-25T15:54:02.598Z,5.30
2023-01-25T15:56:34.270Z,5.40
2023-01-25T15:59:04.506Z,5.30
2023-01-25T16:01:31.549Z,5.40
2023-01-25T16:03:59.138Z,5.40
2023-01-25T16:06:47.821Z,5.40
2023-01-25T16:09:26.702Z,5.40
2023-01-25T16:12:02.799Z,5.40
2023-01-25T16:14:30.757Z,5.40
2023-01-25T16:17:02.996Z,5.40
2023-01-25T16:19:30.104Z,5.30
2023-01-25T16:21:57.197Z,5.20
2023-01-25T16:24:24.106Z,5.20
2023-01-25T16:26:54.806Z,5.20
2023-01-25T16:29:23.080Z,5.10
2023-01-25T16:31:50.700Z,5.10
2023-01-25T16:34:17.495Z,5.10
2023-01-25T16:36:50.144Z,5.00
2023-01-25T16:39:22.382Z,5.00
2023-01-25T16:41:49.393Z,5.00
2023-01-25T16:44:16.573Z,5.00
2023-01-25T16:46:43.530Z,5.00
2023-01-25T16:49:30.550Z,5.00
2023-01-25T16:51:58.007Z,4.90
2023-01-25T16:54:25.211Z,4.90
2023-01-25T16:56:52.250Z,4.80
2023-01-25T16:59:19.125Z,4.80
2023-01-25T17:01:45.868Z,4.80
2023-01-25T17:04:12.638Z,4.80
2023-01-25T17:06:42.967Z,4.80
2023-01-25T17:09:21.877Z,4.80
2023-01-25T17:11:49.608Z,4.90
2023-01-25T17:14:17.375Z,4.90
2023-01-25T17:16:45.092Z,4.90
2023-01-25T17:19:13.345Z,4.90
2023-01-25T17:21:40.214Z,4.90
2023-01-25T17:24:07.163Z,4.90
2023-01-25T17:26:34.189Z,4.90
2023-01-25T17:29:02.601Z,4.90
2023-01-25T17:31:31.817Z,4.90
2023-01-25T17:34:01.278Z,4.90
2023-01-25T17:36:28.068Z,4.90
2023-01-25T17:38:54.785Z,4.90
2023-01-25T17:41:21.541Z,4.90
2023-01-25T17:43:52.744Z,4.90
2023-01-25T17:46:29.941Z,4.80
2023-01-25T17:48:57.267Z,4.80
2023-01-25T17:51:24.963Z,4.80
2023-01-25T17:53:52.811Z,4.80
2023-01-25T17:56:19.675Z,4.80
2023-01-25T17:58:46.486Z,4.70
2023-01-25T18:01:43.089Z,4.70
2023-01-25T18:04:10.119Z,4.70
2023-01-25T18:06:36.929Z,4.70
2023-01-25T18:09:06.164Z,4.70
2023-01-25T18:11:34.355Z,4.70
2023-01-25T18:14:04.775Z,4.70
2023-01-25T18:16:31.887Z,4.70
2023-01-25T18:18:59.887Z,4.70
2023-01-25T18:21:28.505Z,4.70
2023-01-25T18:24:04.217Z,4.70
2023-01-25T18:26:33.637Z,4.70
2023-01-25T18:29:08.021Z,4.80
2023-01-25T18:31:35.094Z,4.70
2023-01-25T18:34:01.778Z,4.70
2023-01-25T18:36:28.559Z,4.80
2023-01-25T18:38:55.454Z,4.80
2023-01-25T18:41:22.161Z,4.80
2023-01-25T18:43:49.925Z,4.80
2023-01-25T18:46:16.641Z,4.80
2023-01-25T18:48:45.531Z,4.80
2023-01-25T18:51:13.867Z,4.80
2023-01-25T18:53:42.149Z,4.80
2023-01-25T18:56:11.869Z,4.80
2023-01-25T18:58:38.969Z,4.80
2023-01-25T19:01:19.518Z,4.80
2023-01-25T19:03:47.008Z,4.80
2023-01-25T19:06:14.159Z,4.80
2023-01-25T19:08:46.561Z,4.80
2023-01-25T19:11:14.671Z,4.70
2023-01-25T19:13:41.844Z,4.70
2023-01-25T19:16:09.397Z,4.70
2023-01-25T19:18:37.614Z,4.70
2023-01-25T19:21:08.276Z,4.70
2023-01-25T19:23:38.685Z,4.70
2023-01-25T19:26:06.410Z,4.70
2023-01-25T19:28:34.751Z,4.70
2023-01-25T19:31:15.322Z,4.70
2023-01-25T19:33:42.210Z,4.70
2023-01-25T19:36:13.123Z,4.70
2023-01-25T19:38:40.442Z,4.70
2023-01-25T19:41:12.381Z,4.70
2023-01-25T19:43:41.642Z,4.70
2023-01-25T19:46:09.916Z,4.70
2023-01-25T19:48:36.941Z,4.70
2023-01-25T19:51:10.779Z,4.70
2023-01-25T19:53:37.951Z,4.70
2023-01-25T19:56:05.406Z,4.70
2023-01-25T19:58:32.258Z,4.70
2023-01-25T20:01:08.394Z,4.70
2023-01-25T20:03:35.850Z,4.70
2023-01-25T20:06:04.033Z,4.70
2023-01-25T20:08:31.555Z,4.70
2023-01-25T20:11:15.884Z,4.70
2023-01-25T20:13:42.815Z,4.70
2023-01-25T20:16:10.359Z,4.70
2023-01-25T20:18:37.169Z,4.80
2023-01-25T20:21:05.856Z,4.80
2023-01-25T20:23:36.621Z,4.90
2023-01-25T20:26:11.282Z,5.00
2023-01-25T20:28:45.248Z,5.00
2023-01-25T20:31:34.773Z,5.00
2023-01-25T20:34:11.889Z,5.10
2023-01-25T20:36:38.653Z,5.10
2023-01-25T20:39:05.811Z,5.10
2023-01-25T20:41:32.822Z,5.20
2023-01-25T20:44:01.936Z,5.20
2023-01-25T20:46:34.305Z,5.10
2023-01-25T20:49:01.558Z,5.10
2023-01-25T20:51:28.218Z,5.20
2023-01-25T20:53:55.155Z,5.10
2023-01-25T20:56:21.976Z,5.20
2023-01-25T20:58:51.983Z,5.20
2023-01-25T21:01:37.348Z,5.20
2023-01-25T21:04:06.138Z,5.30
2023-01-25T21:06:34.992Z,5.30
2023-01-25T21:09:01.891Z,5.30
2023-01-25T21:11:28.748Z,5.30
2023-01-25T21:13:55.614Z,5.40
2023-01-25T21:16:22.908Z,5.40
2023-01-25T21:18:54.657Z,5.40
2023-01-25T21:21:23.032Z,5.50
2023-01-25T21:23:50.486Z,5.50
2023-01-25T21:26:21.246Z,5.60
2023-01-25T21:28:48.465Z,5.60
2023-01-25T21:31:19.786Z,5.60
2023-01-25T21:33:46.786Z,5.70
2023-01-25T21:36:16.640Z,5.70
2023-01-25T21:38:44.681Z,5.70
2023-01-25T21:41:13.524Z,5.70
2023-01-25T21:43:59.063Z,5.70
2023-01-25T21:46:27.278Z,5.70
2023-01-25T21:49:19.938Z,5.70
2023-01-25T21:51:50.998Z,5.70
2023-01-25T21:54:20.307Z,5.70
2023-01-25T21:56:48.100Z,5.70
2023-01-25T21:59:15.083Z,5.70
2023-01-25T22:01:43.368Z,5.70
2023-01-25T22:04:10.778Z,5.70
2023-01-25T22:06:37.749Z,5.70
2023-01-25T22:09:04.599Z,5.70
2023-01-25T22:11:32.490Z,5.80
2023-01-25T22:13:59.325Z,5.80
2023-01-25T22:16:29.231Z,5.80
2023-01-25T22:18:56.433Z,5.80
2023-01-25T22:21:24.820Z,5.90
2023-01-25T22:23:51.824Z,5.90
2023-01-25T22:26:20.252Z,5.90
2023-01-25T22:28:55.043Z,6.00
2023-01-25T22:31:28.797Z,6.00
2023-01-25T22:33:56.229Z,6.00
2023-01-25T22:36:26.647Z,6.00
2023-01-25T22:38:53.407Z,6.10
2023-01-25T22:41:22.100Z,6.10
2023-01-25T22:43:48.806Z,6.10
2023-01-25T22:46:17.697Z,6.10
2023-01-25T22:48:44.561Z,6.10
2023-01-25T22:51:19.059Z,6.10
2023-01-25T22:53:45.843Z,6.10
2023-01-25T22:56:16.511Z,6.10
2023-01-25T22:58:44.672Z,6.10
2023-01-25T23:01:12.958Z,6.10
2023-01-25T23:03:39.864Z,6.10
2023-01-25T23:06:14.764Z,6.00
2023-01-25T23:08:41.690Z,6.00
2023-01-25T23:11:18.530Z,6.00
2023-01-25T23:14:05.895Z,5.90
2023-01-25T23:16:33.194Z,5.90
2023-01-25T23:18:59.998Z,5.90
2023-01-25T23:21:27.679Z,5.80
2023-01-25T23:23:54.922Z,5.80
2023-01-25T23:26:21.873Z,5.70
2023-01-25T23:28:53.291Z,5.70
2023-01-25T23:31:25.262Z,5.60
2023-01-25T23:33:53.365Z,5.60
2023-01-25T23:36:21.844Z,5.60
2023-01-25T23:38:49.080Z,5.60
2023-01-25T23:41:16.733Z,5.50
2023-01-25T23:43:43.748Z,5.40
2023-01-25T23:46:10.643Z,5.40
2023-01-25T23:48:37.458Z,5.40
2023-01-25T23:51:04.458Z,5.40
2023-01-25T23:53:31.768Z,5.30
2023-01-25T23:56:11.151Z,5.30
2023-01-25T23:58:38.568Z,5.20
